createdAt,value
2023-04-04T00:00:39.501Z,62.42
2023-04-04T00:03:09.967Z,62.41
2023-04-04T00:05:42.565Z,62.55
2023-04-04T00:08:12.600Z,62.66
2023-04-04T00:10:43.048Z,62.37
2023-04-04T00:13:13.470Z,63.15
2023-04-04T00:15:43.280Z,64.39
2023-04-04T00:18:13.041Z,64.25
2023-04-04T00:20:45.881Z,64.38
2023-04-04T00:23:16.055Z,64.94
2023-04-04T00:25:46.044Z,65.01
2023-04-04T00:28:16.199Z,64.87
2023-04-04T00:30:46.188Z,65.27
2023-04-04T00:33:16.301Z,65.46
2023-04-04T00:35:51.547Z,65.05
2023-04-04T00:38:21.844Z,64.85
2023-04-04T00:40:54.030Z,64.33
2023-04-04T00:43:24.279Z,65.14
2023-04-04T00:45:55.710Z,64.35
2023-04-04T00:48:26.724Z,64.64
2023-04-04T00:50:59.466Z,64.46
2023-04-04T00:53:29.299Z,64.78
2023-04-04T00:55:59.141Z,64.82
2023-04-04T00:58:29.853Z,64.53
2023-04-04T01:01:00.278Z,64.69
2023-04-04T01:03:31.106Z,65.16
2023-04-04T01:06:04.813Z,64.27
2023-04-04T01:08:38.945Z,63.93
2023-04-04T01:11:09.773Z,64.27
2023-04-04T01:13:43.623Z,63.88
2023-04-04T01:16:17.188Z,64.51
2023-04-04T01:18:49.624Z,64.88
2023-04-04T01:21:24.938Z,65.57
2023-04-04T01:24:03.350Z,65.62
2023-04-04T01:26:47.429Z,65.88
2023-04-04T01:29:17.880Z,65.92
2023-04-04T01:31:55.214Z,65.32
2023-04-04T01:34:35.253Z,65.22
2023-04-04T01:37:10.154Z,65.47
2023-04-04T01:39:46.614Z,66.04
2023-04-04T01:42:22.619Z,66.37
2023-04-04T01:44:59.136Z,66.65
2023-04-04T01:47:41.803Z,66.71
2023-04-04T01:50:16.574Z,67.61
2023-04-04T01:52:47.739Z,67.43
2023-04-04T01:55:18.838Z,67.03
2023-04-04T01:57:52.598Z,67.25
2023-04-04T02:00:23.357Z,67.46
2023-04-04T02:02:53.880Z,67.52
2023-04-04T02:05:24.771Z,68.01
2023-04-04T02:07:55.459Z,68.20
2023-04-04T02:10:34.664Z,68.26
2023-04-04T02:13:07.937Z,68.70
2023-04-04T02:15:38.638Z,68.59
2023-04-04T02:18:08.734Z,68.85
2023-04-04T02:20:39.287Z,68.62
2023-04-04T02:23:09.340Z,68.92
2023-04-04T02:25:39.119Z,68.83
2023-04-04T02:28:11.712Z,68.91
2023-04-04T02:30:41.947Z,68.23
2023-04-04T02:33:12.283Z,68.24
2023-04-04T02:35:42.410Z,68.02
2023-04-04T02:38:12.758Z,68.33
2023-04-04T02:40:49.142Z,68.96
2023-04-04T02:43:22.844Z,68.24
2023-04-04T02:45:55.720Z,68.18
2023-04-04T02:48:29.216Z,68.16
2023-04-04T02:51:05.627Z,68.25
2023-04-04T02:53:37.956Z,68.32
2023-04-04T02:56:21.161Z,68.23
2023-04-04T02:58:55.151Z,68.09
2023-04-04T03:01:26.351Z,67.81
2023-04-04T03:03:57.531Z,67.89
2023-04-04T03:06:29.515Z,67.94
2023-04-04T03:09:01.418Z,67.97
2023-04-04T03:11:32.659Z,68.07
2023-04-04T03:14:08.149Z,68.17
2023-04-04T03:16:44.139Z,68.10
2023-04-04T03:19:16.946Z,68.80
2023-04-04T03:21:49.271Z,68.79
2023-04-04T03:24:20.749Z,68.82
2023-04-04T03:26:51.433Z,68.80
2023-04-04T03:29:25.315Z,69.13
2023-04-04T03:31:56.823Z,69.54
2023-04-04T03:34:28.146Z,69.65
2023-04-04T03:36:58.814Z,69.21
2023-04-04T03:39:33.569Z,70.13
2023-04-04T03:42:04.580Z,69.92
2023-04-04T03:44:39.826Z,69.49
2023-04-04T03:47:13.817Z,71.05
2023-04-04T03:49:44.809Z,71.25
2023-04-04T03:52:16.426Z,71.90
2023-04-04T03:54:47.522Z,72.50
2023-04-04T03:57:18.079Z,72.32
2023-04-04T03:59:52.730Z,72.21
2023-04-04T04:02:25.666Z,72.53
2023-04-04T04:04:56.451Z,72.31
2023-04-04T04:07:28.703Z,71.98
2023-04-04T04:10:00.274Z,72.75
2023-04-04T04:12:33.814Z,72.51
2023-04-04T04:15:07.772Z,73.48
2023-04-04T04:17:42.941Z,74.20
2023-04-04T04:20:16.780Z,74.56
2023-04-04T04:22:54.037Z,74.36
2023-04-04T04:25:26.116Z,74.72
2023-04-04T04:28:07.632Z,74.59
2023-04-04T04:30:43.335Z,74.69
2023-04-04T04:33:15.060Z,75.39
2023-04-04T04:35:59.616Z,74.14
2023-04-04T04:38:37.409Z,73.68
2023-04-04T04:41:09.046Z,73.49
2023-04-04T04:43:46.722Z,73.54
2023-04-04T04:46:23.109Z,73.85
2023-04-04T04:48:54.588Z,74.03
2023-04-04T04:51:31.264Z,73.18
2023-04-04T04:54:03.584Z,72.69
2023-04-04T04:56:36.427Z,72.43
2023-04-04T04:59:13.503Z,72.73
2023-04-04T05:01:50.894Z,72.34
2023-04-04T05:04:22.698Z,72.70
2023-04-04T05:07:08.788Z,73.14
2023-04-04T05:09:38.870Z,72.54
2023-04-04T05:12:09.435Z,72.50
2023-04-04T05:14:46.105Z,73.06
2023-04-04T05:17:19.003Z,73.25
2023-04-04T05:19:49.487Z,74.02
2023-04-04T05:22:24.092Z,74.74
2023-04-04T05:24:55.649Z,74.43
2023-04-04T05:27:28.248Z,75.25
2023-04-04T05:30:02.272Z,75.25
2023-04-04T05:32:44.858Z,75.07
2023-04-04T05:35:23.816Z,74.35
2023-04-04T05:37:54.500Z,74.23
2023-04-04T05:40:25.722Z,74.09
2023-04-04T05:43:08.597Z,73.51
2023-04-04T05:45:49.532Z,73.04
2023-04-04T05:48:23.194Z,71.78
2023-04-04T05:50:56.296Z,71.37
2023-04-04T05:53:38.977Z,71.54
2023-04-04T05:56:09.510Z,71.53
2023-04-04T05:58:40.341Z,71.24
2023-04-04T06:01:10.944Z,72.60
2023-04-04T06:03:44.565Z,71.21
2023-04-04T06:06:18.333Z,71.90
2023-04-04T06:08:53.627Z,72.00
2023-04-04T06:11:26.988Z,71.73
2023-04-04T06:14:05.661Z,70.67
2023-04-04T06:16:37.523Z,71.61
2023-04-04T06:19:14.241Z,71.33
2023-04-04T06:32:22.455Z,71.77
2023-04-04T06:43:12.562Z,72.78
2023-04-04T06:46:38.288Z,73.69
2023-04-04T06:49:33.378Z,73.83
2023-04-04T06:52:08.448Z,74.65
2023-04-04T06:54:38.683Z,74.34
2023-04-04T06:57:09.443Z,74.18
2023-04-04T06:59:45.432Z,73.88
2023-04-04T07:02:16.286Z,74.60
2023-04-04T07:04:47.087Z,75.07
2023-04-04T07:07:17.677Z,74.43
2023-04-04T07:09:48.280Z,74.24
2023-04-04T07:12:18.872Z,73.82
2023-04-04T07:14:52.136Z,74.20
2023-04-04T07:17:25.103Z,73.84
2023-04-04T07:19:58.069Z,73.99
2023-04-04T07:22:28.714Z,74.54
2023-04-04T07:24:59.508Z,73.98
2023-04-04T07:27:29.891Z,73.45
2023-04-04T07:30:03.088Z,72.87
2023-04-04T07:32:33.954Z,73.22
2023-04-04T07:35:05.630Z,72.41
2023-04-04T07:37:37.323Z,72.58
2023-04-04T07:40:10.352Z,72.92
2023-04-04T07:42:48.468Z,72.92
2023-04-04T07:45:22.530Z,72.21
2023-04-04T07:47:53.130Z,72.19
2023-04-04T07:50:25.575Z,72.00
2023-04-04T07:52:57.162Z,71.47
2023-04-04T07:55:28.614Z,70.89
2023-04-04T07:57:59.558Z,69.74
2023-04-04T08:00:35.905Z,70.21
2023-04-04T08:03:07.515Z,70.05
2023-04-04T08:05:38.216Z,70.90
2023-04-04T08:08:09.167Z,70.79
2023-04-04T08:10:41.082Z,70.49
2023-04-04T08:13:12.980Z,68.89
2023-04-04T08:15:47.569Z,66.90
2023-04-04T08:18:20.037Z,65.75
2023-04-04T08:20:52.107Z,64.77
2023-04-04T08:23:22.970Z,64.45
2023-04-04T08:25:55.144Z,64.15
2023-04-04T08:28:26.676Z,60.41
2023-04-04T08:30:59.311Z,65.03
2023-04-04T08:33:40.860Z,68.32
2023-04-04T08:36:16.785Z,57.43
2023-04-04T08:38:46.552Z,57.33
2023-04-04T08:41:16.347Z,57.01
2023-04-04T08:43:55.349Z,56.51
2023-04-04T08:46:31.325Z,57.03
2023-04-04T08:49:04.888Z,56.25
2023-04-04T08:51:38.440Z,55.57
2023-04-04T08:54:13.474Z,56.56
2023-04-04T08:56:45.273Z,56.15
2023-04-04T08:59:19.804Z,55.34
2023-04-04T09:02:05.257Z,54.55
2023-04-04T09:04:37.610Z,55.59
2023-04-04T09:07:10.312Z,54.70
2023-04-04T09:09:41.808Z,54.41
2023-04-04T09:12:15.526Z,54.01
2023-04-04T09:14:49.957Z,54.05
2023-04-04T09:17:25.262Z,53.53
2023-04-04T09:19:55.680Z,53.29
2023-04-04T09:22:25.676Z,53.53
2023-04-04T09:24:55.526Z,53.55
2023-04-04T09:27:27.934Z,53.02
2023-04-04T09:30:15.160Z,52.85
2023-04-04T09:47:01.098Z,53.57
2023-04-04T11:10:52.846Z,51.01
2023-04-04T11:13:29.520Z,51.01
2023-04-04T11:16:01.110Z,49.72
2023-04-04T11:18:49.224Z,49.69
2023-04-04T11:21:24.222Z,48.78
2023-04-04T11:24:18.686Z,49.27
2023-04-04T11:26:51.015Z,48.68
2023-04-04T11:29:44.928Z,48.45
2023-04-04T11:32:59.803Z,47.77
2023-04-04T11:35:34.009Z,48.88
2023-04-04T11:38:04.788Z,50.48
2023-04-04T11:40:39.334Z,49.78
2023-04-04T11:43:16.770Z,51.31
2023-04-04T11:45:47.742Z,50.35
2023-04-04T11:48:19.090Z,51.28
2023-04-04T11:50:52.410Z,49.46
2023-04-04T11:53:22.541Z,49.45
2023-04-04T11:55:53.393Z,49.25
2023-04-04T11:58:25.679Z,48.74
2023-04-04T12:00:55.523Z,49.25
2023-04-04T12:03:25.726Z,48.88
2023-04-04T12:05:55.643Z,48.24
2023-04-04T12:08:25.499Z,48.34
2023-04-04T12:10:55.694Z,47.37
2023-04-04T12:13:34.187Z,47.02
2023-04-04T12:16:03.964Z,47.63
2023-04-04T12:18:33.696Z,48.58
2023-04-04T12:21:03.589Z,47.13
2023-04-04T12:23:36.992Z,47.71
2023-04-04T12:26:09.253Z,47.81
2023-04-04T12:28:42.205Z,48.39
2023-04-04T12:31:12.599Z,47.44
2023-04-04T12:33:43.788Z,47.10
2023-04-04T12:36:14.477Z,46.78
2023-04-04T12:39:00.632Z,46.27
2023-04-04T12:41:30.607Z,45.98
2023-04-04T12:44:07.652Z,46.32
2023-04-04T12:46:41.761Z,47.62
2023-04-04T12:49:14.226Z,48.21
2023-04-04T12:51:44.193Z,47.84
2023-04-04T12:54:29.156Z,46.93
2023-04-04T12:56:59.713Z,47.46
2023-04-04T12:59:35.926Z,46.39
2023-04-04T13:02:09.129Z,45.74
2023-04-04T13:04:39.898Z,45.75
2023-04-04T13:07:23.821Z,45.46
2023-04-04T13:09:58.386Z,46.17
2023-04-04T13:12:28.196Z,46.32
2023-04-04T13:15:11.848Z,46.88
2023-04-04T13:17:45.290Z,45.61
2023-04-04T13:20:15.867Z,45.40
2023-04-04T13:22:46.200Z,46.41
2023-04-04T13:25:16.069Z,45.45
2023-04-04T13:27:46.060Z,44.64
2023-04-04T13:30:18.682Z,44.37
2023-04-04T13:32:48.434Z,44.86
2023-04-04T13:35:18.394Z,43.86
2023-04-04T13:37:48.410Z,44.72
2023-04-04T13:40:18.363Z,44.99
2023-04-04T13:42:48.173Z,45.54
2023-04-04T13:45:20.967Z,44.75
2023-04-04T13:47:50.956Z,44.64
2023-04-04T13:50:22.253Z,45.06
2023-04-04T13:52:54.818Z,44.84
2023-04-04T13:55:24.958Z,45.26
2023-04-04T13:57:54.739Z,43.89
2023-04-04T14:00:28.525Z,42.62
2023-04-04T14:03:00.784Z,43.12
2023-04-04T14:05:30.537Z,44.12
2023-04-04T14:08:00.272Z,44.19
2023-04-04T14:10:30.053Z,44.59
2023-04-04T14:13:00.620Z,43.79
2023-04-04T14:15:33.233Z,43.51
2023-04-04T14:18:03.068Z,43.88
2023-04-04T14:20:33.932Z,44.16
2023-04-04T14:23:03.797Z,43.49
2023-04-04T14:25:33.571Z,43.01
2023-04-04T14:28:03.364Z,42.98
2023-04-04T14:30:35.729Z,42.46
2023-04-04T14:33:05.474Z,43.23
2023-04-04T14:35:36.077Z,43.72
2023-04-04T14:38:05.896Z,42.89
2023-04-04T14:40:35.919Z,41.90
2023-04-04T14:43:05.820Z,42.22
2023-04-04T14:45:38.885Z,41.12
2023-04-04T14:48:08.941Z,42.39
2023-04-04T14:50:38.721Z,42.43
2023-04-04T14:53:08.568Z,41.99
2023-04-04T14:55:38.648Z,42.54
2023-04-04T14:58:08.660Z,42.10
2023-04-04T15:00:40.974Z,42.18
2023-04-04T15:03:11.271Z,42.03
2023-04-04T15:05:41.325Z,43.79
2023-04-04T15:08:11.322Z,43.15
2023-04-04T15:10:41.518Z,43.26
2023-04-04T15:13:11.469Z,42.86
2023-04-04T15:15:43.985Z,42.65
2023-04-04T15:18:13.773Z,43.41
2023-04-04T15:20:43.816Z,42.30
2023-04-04T15:23:13.904Z,42.48
2023-04-04T15:25:43.636Z,42.94
2023-04-04T15:28:13.436Z,44.84
2023-04-04T15:30:45.806Z,43.42
2023-04-04T15:33:15.827Z,41.39
2023-04-04T15:35:45.685Z,42.75
2023-04-04T15:38:15.954Z,41.43
2023-04-04T15:40:45.771Z,42.08
2023-04-04T15:43:15.460Z,41.71
2023-04-04T15:45:47.914Z,41.41
2023-04-04T15:48:18.050Z,41.49
2023-04-04T15:50:47.796Z,41.01
2023-04-04T15:53:17.958Z,41.36
2023-04-04T15:55:48.068Z,40.86
2023-04-04T15:58:17.816Z,39.95
2023-04-04T16:00:50.387Z,38.25
2023-04-04T16:03:20.720Z,39.60
2023-04-04T16:05:51.139Z,40.35
2023-04-04T16:08:21.969Z,40.12
2023-04-04T16:10:52.139Z,41.22
2023-04-04T16:13:23.153Z,39.94
2023-04-04T16:15:56.067Z,40.54
2023-04-04T16:18:26.645Z,40.82
2023-04-04T16:20:56.865Z,40.22
2023-04-04T16:23:27.283Z,41.82
2023-04-04T16:26:00.214Z,41.23
2023-04-04T16:28:30.441Z,41.30
2023-04-04T16:31:02.900Z,40.60
2023-04-04T16:33:32.958Z,41.05
2023-04-04T16:36:02.870Z,41.42
2023-04-04T16:38:32.653Z,42.27
2023-04-04T16:41:03.425Z,42.52
2023-04-04T16:43:33.278Z,41.46
2023-04-04T16:46:05.697Z,41.87
2023-04-04T16:48:35.546Z,41.91
2023-04-04T16:51:06.736Z,42.25
2023-04-04T16:53:36.961Z,42.00
2023-04-04T16:56:07.330Z,42.77
2023-04-04T16:58:37.215Z,43.37
2023-04-04T17:01:10.023Z,43.10
2023-04-04T17:03:40.295Z,43.24
2023-04-04T17:06:11.001Z,42.65
2023-04-04T17:08:42.573Z,42.12
2023-04-04T17:11:13.654Z,42.27
2023-04-04T17:13:44.691Z,43.38
2023-04-04T17:16:18.139Z,43.44
2023-04-04T17:18:48.356Z,44.12
2023-04-04T17:21:18.683Z,43.99
2023-04-04T17:23:49.885Z,44.31
2023-04-04T17:26:20.214Z,44.87
2023-04-04T17:28:50.029Z,44.84
2023-04-04T17:31:22.813Z,44.72
2023-04-04T17:33:53.866Z,44.70
2023-04-04T17:36:24.247Z,44.50
2023-04-04T17:38:54.709Z,44.33
2023-04-04T17:41:24.783Z,44.56
2023-04-04T17:43:55.685Z,44.73
2023-04-04T17:46:29.125Z,45.15
2023-04-04T17:48:59.610Z,45.67
2023-04-04T17:51:30.592Z,45.88
2023-04-04T17:54:00.947Z,46.21
2023-04-04T17:56:31.234Z,46.21
2023-04-04T17:59:01.903Z,46.05
2023-04-04T18:01:43.601Z,45.88
2023-04-04T18:04:20.064Z,45.89
2023-04-04T18:06:59.467Z,46.25
2023-04-04T18:09:39.183Z,45.79
2023-04-04T18:12:15.020Z,46.21
2023-04-04T18:14:51.760Z,46.48
2023-04-04T18:17:35.901Z,45.78
2023-04-04T18:20:34.478Z,46.64
2023-04-04T18:23:18.169Z,46.84
2023-04-04T18:25:55.510Z,47.00
2023-04-04T18:28:32.078Z,46.74
2023-04-04T18:31:20.092Z,46.81
2023-04-04T18:34:01.085Z,46.83
2023-04-04T18:36:41.202Z,47.08
2023-04-04T18:39:46.616Z,46.96
2023-04-04T18:42:33.852Z,47.23
2023-04-04T18:45:39.952Z,47.28
2023-04-04T18:48:20.845Z,47.10
2023-04-04T18:51:17.372Z,46.98
2023-04-04T18:54:01.669Z,47.06
2023-04-04T18:56:45.865Z,47.15
2023-04-04T18:59:18.146Z,47.79
2023-04-04T19:01:48.502Z,49.28
2023-04-04T19:04:23.423Z,49.78
2023-04-04T19:06:58.330Z,50.50
2023-04-04T19:09:33.813Z,50.22
2023-04-04T19:12:13.025Z,50.54
2023-04-04T19:14:44.248Z,50.65
2023-04-04T19:17:19.731Z,50.91
2023-04-04T19:19:52.949Z,50.88
2023-04-04T19:22:25.926Z,50.65
2023-04-04T19:24:56.039Z,50.62
2023-04-04T19:27:26.540Z,49.70
2023-04-04T19:30:02.412Z,49.71
2023-04-04T19:32:36.482Z,49.62
2023-04-04T19:35:25.577Z,50.00
2023-04-04T19:38:00.906Z,50.38
2023-04-04T19:40:50.837Z,50.72
2023-04-04T19:43:23.725Z,51.19
2023-04-04T19:45:55.373Z,51.46
2023-04-04T19:48:42.587Z,51.44
2023-04-04T19:51:15.006Z,52.06
2023-04-04T19:53:49.000Z,51.86
2023-04-04T19:56:21.517Z,52.19
2023-04-04T19:58:56.048Z,52.18
2023-04-04T20:01:27.582Z,52.40
2023-04-04T20:03:58.258Z,52.96
2023-04-04T20:06:31.702Z,53.40
2023-04-04T20:09:05.969Z,53.86
2023-04-04T20:11:37.857Z,54.19
2023-04-04T20:14:10.083Z,54.30
2023-04-04T20:16:40.702Z,55.18
2023-04-04T20:19:12.610Z,57.14
2023-04-04T20:21:42.724Z,58.84
2023-04-04T20:24:20.518Z,58.81
2023-04-04T20:26:55.215Z,59.47
2023-04-04T20:29:27.781Z,59.97
2023-04-04T20:31:59.985Z,59.52
2023-04-04T20:34:41.993Z,59.22
2023-04-04T20:37:15.000Z,59.19
2023-04-04T20:39:50.739Z,59.23
2023-04-04T20:42:34.344Z,59.76
2023-04-04T20:45:16.534Z,59.29
2023-04-04T20:47:49.613Z,59.63
2023-04-04T20:59:48.526Z,59.26
2023-04-04T22:07:27.281Z,65.87
2023-04-04T22:09:59.010Z,64.96
2023-04-04T22:12:28.767Z,65.62
2023-04-04T22:14:58.846Z,67.37
2023-04-04T22:17:28.766Z,66.44
2023-04-04T22:20:07.652Z,68.27
2023-04-04T22:22:43.847Z,68.22
2023-04-04T22:25:13.569Z,69.29
2023-04-04T22:27:43.330Z,69.97
2023-04-04T22:30:13.886Z,69.72
2023-04-04T22:32:44.217Z,69.17
2023-04-04T22:35:14.163Z,68.40
2023-04-04T22:37:46.529Z,68.65
2023-04-04T22:40:16.252Z,68.80
2023-04-04T22:42:46.021Z,68.27
2023-04-04T22:45:17.027Z,68.21
2023-04-04T22:47:47.741Z,67.65
2023-04-04T22:50:18.851Z,66.91
2023-04-04T22:52:52.558Z,66.41
2023-04-04T22:55:24.850Z,65.73
2023-04-04T22:57:54.623Z,65.48
2023-04-04T23:00:24.366Z,64.96
2023-04-04T23:02:54.241Z,64.52
2023-04-04T23:05:23.984Z,64.31
2023-04-04T23:07:57.003Z,63.63
2023-04-04T23:10:26.784Z,63.26
2023-04-04T23:12:56.564Z,62.99
2023-04-04T23:15:27.717Z,63.27
2023-04-04T23:17:57.879Z,64.06
2023-04-04T23:20:28.169Z,64.31
2023-04-04T23:23:00.753Z,65.28
2023-04-04T23:25:30.620Z,66.60
2023-04-04T23:28:00.686Z,68.04
2023-04-04T23:30:30.547Z,68.46
2023-04-04T23:33:00.568Z,67.97
2023-04-04T23:35:30.631Z,67.15
2023-04-04T23:38:02.931Z,67.03
2023-04-04T23:40:32.679Z,68.24
2023-04-04T23:43:02.411Z,69.19
2023-04-04T23:45:37.397Z,69.39
2023-04-04T23:48:07.255Z,70.41
2023-04-04T23:50:38.223Z,71.08
2023-04-04T23:53:10.880Z,71.58
2023-04-04T23:55:40.810Z,72.02
2023-04-04T23:58:10.608Z,72.17
